Time;durP1;ratioP1;P1;durP2;ratioP2;P2;SDS_P1;SDS_P2;PMS_P1;PMS_P2;Temp;Humidity;BMP_temperature;BMP_pressure;BME280_temperature;BME280_humidity;BME280_pressure;Samples;Min_cycle;Max_cycle;Signal;HPM_P1;HPM_P2
2022/10/13 00:00:12;;;;;;;3.77;2.70;;;;;;;;;;5020573;28;20200;-53
2022/10/13 00:02:38;;;;;;;3.73;2.70;;;;;;;;;;5027615;28;20310;-54
2022/10/13 00:05:05;;;;;;;3.33;2.40;;;;;;;;;;5028068;28;20287;-54
2022/10/13 00:07:31;;;;;;;3.30;2.70;;;;;;;;;;5022089;28;20224;-55
2022/10/13 00:09:57;;;;;;;2.70;2.17;;;;;;;;;;5027570;28;20553;-54
2022/10/13 00:12:23;;;;;;;3.10;2.60;;;;;;;;;;5009624;28;20303;-52
2022/10/13 00:14:50;;;;;;;3.60;2.90;;;;;;;;;;5027686;28;20754;-52
2022/10/13 00:17:16;;;;;;;3.27;2.80;;;;;;;;;;5027782;28;20683;-53
2022/10/13 00:19:42;;;;;;;3.80;2.90;;;;;;;;;;5027710;28;20228;-54
2022/10/13 00:22:09;;;;;;;3.80;2.63;;;;;;;;;;5024749;28;20215;-52
2022/10/13 00:24:35;;;;;;;3.40;2.80;;;;;;;;;;5027005;28;20626;-55
2022/10/13 00:27:01;;;;;;;3.30;2.40;;;;;;;;;;5029193;28;20196;-54
2022/10/13 00:29:28;;;;;;;3.87;2.50;;;;;;;;;;5028331;28;20231;-54
2022/10/13 00:31:54;;;;;;;4.77;2.90;;;;;;;;;;5025366;28;20362;-52
2022/10/13 00:34:20;;;;;;;3.63;2.40;;;;;;;;;;5030733;28;20782;-51
2022/10/13 00:36:47;;;;;;;3.63;2.57;;;;;;;;;;5027482;28;20211;-52
2022/10/13 00:39:13;;;;;;;3.30;2.70;;;;;;;;;;5031824;28;20315;-55
2022/10/13 00:41:40;;;;;;;3.20;2.70;;;;;;;;;;5022018;28;20315;-53
2022/10/13 00:44:44;;;;;;;3.23;2.50;;;;;;;;;;5032246;28;20290;-52
2022/10/13 00:47:11;;;;;;;3.83;2.60;;;;;;;;;;5031719;28;20538;-53
2022/10/13 00:49:37;;;;;;;3.10;2.27;;;;;;;;;;5026102;28;20279;-54
2022/10/13 00:52:03;;;;;;;3.47;2.70;;;;;;;;;;5029093;28;20849;-51
2022/10/13 00:54:30;;;;;;;3.40;2.60;;;;;;;;;;5031129;28;20282;-55
2022/10/13 00:56:56;;;;;;;3.43;2.67;;;;;;;;;;5030503;28;20279;-53
2022/10/13 00:59:27;;;;;;;2.40;2.20;;;;;;;;;;5030698;28;20668;-54
2022/10/13 01:01:55;;;;;;;3.00;2.30;;;;;;;;;;5020351;28;20302;-55
2022/10/13 01:04:24;;;;;;;2.97;2.63;;;;;;;;;;5023712;28;20230;-54
2022/10/13 01:06:53;;;;;;;3.27;2.60;;;;;;;;;;5030571;28;20286;-54
2022/10/13 01:09:20;;;;;;;3.60;2.77;;;;;;;;;;5030126;28;20282;-55
2022/10/13 01:12:07;;;;;;;3.57;2.23;;;;;;;;;;5027841;28;20310;-53
2022/10/13 01:14:41;;;;;;;2.53;2.10;;;;;;;;;;5008273;28;20282;-53
2022/10/13 01:17:41;;;;;;;3.40;2.60;;;;;;;;;;5013584;28;20195;-55
2022/10/13 01:20:36;;;;;;;3.07;2.40;;;;;;;;;;5012345;28;20254;-53
2022/10/13 01:23:37;;;;;;;2.93;2.30;;;;;;;;;;5011430;28;20310;-53
2022/10/13 01:26:10;;;;;;;3.07;2.43;;;;;;;;;;5030971;28;20269;-55
2022/10/13 01:28:45;;;;;;;2.97;2.40;;;;;;;;;;5030353;28;20275;-54
2022/10/13 01:31:18;;;;;;;2.60;2.20;;;;;;;;;;5013320;28;20714;-55
2022/10/13 01:34:16;;;;;;;3.47;2.80;;;;;;;;;;5012397;28;20598;-53
2022/10/13 01:36:57;;;;;;;2.80;2.47;;;;;;;;;;5027741;28;20234;-52
2022/10/13 01:39:30;;;;;;;2.83;2.47;;;;;;;;;;5027751;28;20705;-54
2022/10/13 01:42:04;;;;;;;3.83;2.50;;;;;;;;;;5029325;28;20307;-55
2022/10/13 01:44:33;;;;;;;2.27;2.00;;;;;;;;;;5010170;28;20210;-55
2022/10/13 01:47:00;;;;;;;3.13;2.60;;;;;;;;;;5025874;28;20307;-52
2022/10/13 01:49:30;;;;;;;2.50;2.30;;;;;;;;;;5012629;28;20194;-52
2022/10/13 01:52:00;;;;;;;3.00;2.43;;;;;;;;;;5012263;28;20239;-51
2022/10/13 01:54:27;;;;;;;3.37;2.57;;;;;;;;;;5008371;28;20286;-55
2022/10/13 01:56:54;;;;;;;2.53;2.30;;;;;;;;;;5029903;28;20207;-54
2022/10/13 01:59:21;;;;;;;3.23;2.60;;;;;;;;;;5024297;28;20844;-51
2022/10/13 02:01:59;;;;;;;2.83;2.40;;;;;;;;;;5001525;28;20311;-55
2022/10/13 02:04:42;;;;;;;2.87;2.27;;;;;;;;;;5013291;28;20203;-52
2022/10/13 02:07:17;;;;;;;2.73;2.33;;;;;;;;;;5020701;28;20975;-54
2022/10/13 02:09:46;;;;;;;2.73;2.20;;;;;;;;;;5028905;28;20456;-52
2022/10/13 02:12:19;;;;;;;2.97;2.60;;;;;;;;;;5022004;28;20219;-51
2022/10/13 02:14:47;;;;;;;2.50;2.30;;;;;;;;;;5009121;28;20230;-52
2022/10/13 02:17:14;;;;;;;3.10;2.50;;;;;;;;;;5007014;28;20730;-53
2022/10/13 02:19:40;;;;;;;3.07;2.37;;;;;;;;;;5029465;28;20215;-53
2022/10/13 02:22:07;;;;;;;2.97;2.37;;;;;;;;;;5010433;28;20541;-54
2022/10/13 02:24:33;;;;;;;2.70;2.10;;;;;;;;;;5011685;28;20224;-52
2022/10/13 02:26:59;;;;;;;3.10;2.50;;;;;;;;;;5004771;28;20291;-50
2022/10/13 02:29:26;;;;;;;2.53;2.30;;;;;;;;;;5028229;28;20279;-53
2022/10/13 02:31:53;;;;;;;3.00;2.40;;;;;;;;;;5027502;28;20223;-52
2022/10/13 02:34:20;;;;;;;3.67;2.80;;;;;;;;;;5027722;28;20195;-52
2022/10/13 02:36:46;;;;;;;2.50;2.30;;;;;;;;;;5024226;28;20672;-52
2022/10/13 02:39:13;;;;;;;3.47;2.30;;;;;;;;;;5026499;28;20251;-51
2022/10/13 02:41:39;;;;;;;2.97;2.30;;;;;;;;;;5027991;28;20246;-51
2022/10/13 02:44:06;;;;;;;2.40;2.20;;;;;;;;;;5025157;28;20283;-54
2022/10/13 02:46:32;;;;;;;2.50;2.20;;;;;;;;;;5028982;28;20303;-54
2022/10/13 02:48:58;;;;;;;2.70;2.33;;;;;;;;;;5026221;28;20727;-51
2022/10/13 02:51:25;;;;;;;2.73;2.40;;;;;;;;;;5022393;28;20793;-50
2022/10/13 02:53:51;;;;;;;3.20;2.70;;;;;;;;;;5029140;28;20227;-50
2022/10/13 02:56:18;;;;;;;2.70;2.23;;;;;;;;;;5027947;28;20287;-51
2022/10/13 02:58:44;;;;;;;3.17;2.27;;;;;;;;;;5029356;28;20785;-50
2022/10/13 03:01:13;;;;;;;2.93;2.40;;;;;;;;;;5023085;28;20306;-52
2022/10/13 03:03:39;;;;;;;2.60;2.30;;;;;;;;;;5025935;28;20211;-50
2022/10/13 03:06:06;;;;;;;3.07;2.33;;;;;;;;;;5027381;28;20286;-51
2022/10/13 03:08:34;;;;;;;2.80;2.30;;;;;;;;;;5024124;28;20290;-55
2022/10/13 03:11:00;;;;;;;3.37;2.20;;;;;;;;;;5021889;28;20669;-50
2022/10/13 03:13:26;;;;;;;2.20;2.00;;;;;;;;;;5028159;28;20191;-51
2022/10/13 03:15:53;;;;;;;2.63;2.23;;;;;;;;;;5025347;28;20294;-52
2022/10/13 03:18:19;;;;;;;2.87;2.10;;;;;;;;;;5028811;28;20313;-50
2022/10/13 03:20:57;;;;;;;2.40;2.10;;;;;;;;;;5024506;28;20310;-52
2022/10/13 03:23:24;;;;;;;2.80;2.30;;;;;;;;;;5028758;28;20286;-53
2022/10/13 03:25:50;;;;;;;2.83;2.27;;;;;;;;;;5009784;28;20291;-54
2022/10/13 03:28:17;;;;;;;3.00;2.40;;;;;;;;;;5022523;28;20655;-50
2022/10/13 03:30:43;;;;;;;3.07;2.30;;;;;;;;;;5028118;28;20199;-50
2022/10/13 03:33:09;;;;;;;2.37;2.10;;;;;;;;;;5029179;28;20309;-52
2022/10/13 03:35:36;;;;;;;2.97;2.13;;;;;;;;;;5027471;28;20282;-52
2022/10/13 03:38:02;;;;;;;2.27;2.00;;;;;;;;;;5020235;28;20287;-50
2022/10/13 03:40:28;;;;;;;2.73;2.30;;;;;;;;;;5023985;28;20659;-51
2022/10/13 03:42:55;;;;;;;2.47;2.27;;;;;;;;;;5028036;28;20315;-54
2022/10/13 03:45:21;;;;;;;2.40;2.00;;;;;;;;;;5009368;28;20287;-50
2022/10/13 03:47:48;;;;;;;3.83;2.30;;;;;;;;;;5029059;28;20219;-52
2022/10/13 03:50:14;;;;;;;2.93;2.20;;;;;;;;;;5026890;28;20279;-52
2022/10/13 03:52:40;;;;;;;3.33;2.20;;;;;;;;;;5027419;28;20318;-52
2022/10/13 03:55:07;;;;;;;2.33;2.00;;;;;;;;;;5022508;28;20220;-49
2022/10/13 03:57:33;;;;;;;2.73;2.23;;;;;;;;;;5028183;28;20219;-54
2022/10/13 04:00:00;;;;;;;2.60;2.10;;;;;;;;;;5027212;28;20309;-52
2022/10/13 04:02:26;;;;;;;2.43;2.00;;;;;;;;;;5025851;28;20235;-55
2022/10/13 04:04:53;;;;;;;4.13;2.33;;;;;;;;;;5024638;28;20286;-50
2022/10/13 04:07:19;;;;;;;2.70;2.20;;;;;;;;;;5026183;28;20196;-52
2022/10/13 04:09:45;;;;;;;2.37;2.13;;;;;;;;;;5022653;28;20784;-50
2022/10/13 04:12:12;;;;;;;3.60;2.50;;;;;;;;;;5008545;28;20315;-50
2022/10/13 04:14:45;;;;;;;2.63;2.23;;;;;;;;;;5030766;28;20200;-54
2022/10/13 04:17:11;;;;;;;2.30;2.10;;;;;;;;;;5025260;28;20230;-52
2022/10/13 04:19:37;;;;;;;2.53;2.10;;;;;;;;;;5026391;28;20219;-53
2022/10/13 04:22:04;;;;;;;2.50;2.10;;;;;;;;;;5029771;28;20306;-50
2022/10/13 04:24:30;;;;;;;2.60;2.07;;;;;;;;;;5030896;28;20282;-51
2022/10/13 04:26:56;;;;;;;2.40;2.20;;;;;;;;;;5032153;28;20605;-50
2022/10/13 04:29:23;;;;;;;3.03;2.13;;;;;;;;;;5013894;28;20279;-50
2022/10/13 04:31:49;;;;;;;2.27;1.97;;;;;;;;;;5028256;28;20323;-54
2022/10/13 04:34:15;;;;;;;2.93;2.30;;;;;;;;;;5028424;28;20684;-54
2022/10/13 04:36:42;;;;;;;2.63;2.30;;;;;;;;;;5030950;28;20299;-54
2022/10/13 04:39:08;;;;;;;4.70;2.60;;;;;;;;;;5030093;28;20342;-51
2022/10/13 04:41:34;;;;;;;2.47;2.27;;;;;;;;;;5030802;28;20310;-51
2022/10/13 04:44:01;;;;;;;3.80;2.50;;;;;;;;;;5031366;28;20283;-52
2022/10/13 04:46:28;;;;;;;2.33;2.13;;;;;;;;;;5034996;28;20282;-50
2022/10/13 04:48:55;;;;;;;3.87;2.37;;;;;;;;;;5030725;28;20202;-51
2022/10/13 04:51:23;;;;;;;3.00;2.27;;;;;;;;;;5030140;28;20299;-50
2022/10/13 04:53:54;;;;;;;2.93;2.50;;;;;;;;;;5031013;28;20486;-51
2022/10/13 04:56:21;;;;;;;3.17;2.53;;;;;;;;;;5026854;28;20294;-50
2022/10/13 04:58:48;;;;;;;3.03;2.30;;;;;;;;;;5031557;28;20249;-50
2022/10/13 05:01:20;;;;;;;3.50;2.83;;;;;;;;;;5029333;28;20386;-51
2022/10/13 05:03:54;;;;;;;3.30;2.27;;;;;;;;;;5031593;28;20207;-50
2022/10/13 05:06:24;;;;;;;2.90;2.20;;;;;;;;;;5028255;28;20295;-51
2022/10/13 05:08:50;;;;;;;2.17;1.90;;;;;;;;;;5030972;28;20290;-53
2022/10/13 05:11:19;;;;;;;2.70;2.27;;;;;;;;;;5028204;28;20299;-53
2022/10/13 05:13:46;;;;;;;2.67;2.20;;;;;;;;;;5024793;28;20287;-52
2022/10/13 05:16:14;;;;;;;2.37;1.90;;;;;;;;;;5028738;28;20302;-52
2022/10/13 05:18:41;;;;;;;2.47;2.20;;;;;;;;;;5027435;28;20290;-56
2022/10/13 05:21:10;;;;;;;3.43;2.47;;;;;;;;;;5012991;28;20341;-53
2022/10/13 05:23:37;;;;;;;3.67;2.30;;;;;;;;;;5028382;28;20231;-53
2022/10/13 05:26:06;;;;;;;2.83;2.27;;;;;;;;;;5022721;28;20286;-56
2022/10/13 05:28:33;;;;;;;2.67;2.20;;;;;;;;;;5029431;28;20294;-58
2022/10/13 05:31:23;;;;;;;3.40;2.70;;;;;;;;;;5021182;28;20460;-52
2022/10/13 05:33:50;;;;;;;3.70;2.93;;;;;;;;;;5025538;28;20203;-54
2022/10/13 05:36:22;;;;;;;4.47;3.10;;;;;;;;;;5027554;28;20295;-53
2022/10/13 05:38:53;;;;;;;3.17;2.60;;;;;;;;;;5028831;28;20259;-56
2022/10/13 05:41:20;;;;;;;3.70;2.93;;;;;;;;;;5004655;28;20751;-53
2022/10/13 05:43:47;;;;;;;5.47;2.80;;;;;;;;;;5027495;28;20214;-54
2022/10/13 05:46:13;;;;;;;3.57;3.00;;;;;;;;;;5007319;28;20198;-55
2022/10/13 05:48:40;;;;;;;3.93;2.97;;;;;;;;;;5008811;28;20203;-55
2022/10/13 05:51:10;;;;;;;4.13;3.00;;;;;;;;;;5009685;28;20219;-54
2022/10/13 05:53:39;;;;;;;3.93;3.20;;;;;;;;;;5012670;28;20283;-53
2022/10/13 05:56:09;;;;;;;6.17;3.07;;;;;;;;;;5016935;28;20381;-53
2022/10/13 05:58:42;;;;;;;3.93;2.97;;;;;;;;;;5019661;28;20202;-54
2022/10/13 06:01:11;;;;;;;4.50;3.27;;;;;;;;;;5002375;28;20315;-54
2022/10/13 06:03:38;;;;;;;4.93;3.67;;;;;;;;;;5008286;28;20341;-51
2022/10/13 06:06:05;;;;;;;3.67;3.20;;;;;;;;;;5022272;28;20199;-54
2022/10/13 06:08:31;;;;;;;4.23;2.87;;;;;;;;;;5023238;28;20311;-51
2022/10/13 06:10:58;;;;;;;5.63;3.00;;;;;;;;;;5020582;28;20226;-50
2022/10/13 06:13:24;;;;;;;4.50;3.13;;;;;;;;;;5023120;28;20277;-53
2022/10/13 06:15:50;;;;;;;4.43;3.33;;;;;;;;;;5016090;28;20911;-54
2022/10/13 06:18:16;;;;;;;4.27;3.07;;;;;;;;;;5024066;28;20618;-53
2022/10/13 06:20:43;;;;;;;3.93;3.37;;;;;;;;;;5020591;28;20219;-51
2022/10/13 06:23:09;;;;;;;4.03;3.00;;;;;;;;;;5027317;28;20219;-53
2022/10/13 06:25:36;;;;;;;5.27;3.10;;;;;;;;;;5024558;28;20294;-53
2022/10/13 06:28:02;;;;;;;4.70;2.90;;;;;;;;;;5022446;28;20334;-51
2022/10/13 06:30:28;;;;;;;5.27;3.40;;;;;;;;;;5027719;28;20778;-55
2022/10/13 06:32:55;;;;;;;4.43;3.40;;;;;;;;;;5027063;28;20314;-55
2022/10/13 06:35:22;;;;;;;3.90;3.00;;;;;;;;;;5027161;28;20237;-54
2022/10/13 06:37:49;;;;;;;4.97;3.40;;;;;;;;;;5016934;28;20286;-55
2022/10/13 06:40:15;;;;;;;5.50;3.30;;;;;;;;;;5025052;28;20303;-54
2022/10/13 06:42:41;;;;;;;3.83;3.00;;;;;;;;;;5017893;28;20286;-55
2022/10/13 06:45:08;;;;;;;5.90;3.23;;;;;;;;;;5026490;28;20769;-55
2022/10/13 06:47:34;;;;;;;4.37;3.20;;;;;;;;;;5028891;28;20210;-53
2022/10/13 06:50:01;;;;;;;8.00;3.60;;;;;;;;;;5020775;28;20286;-55
2022/10/13 06:52:27;;;;;;;4.63;3.00;;;;;;;;;;5026255;28;20634;-55
2022/10/13 06:54:53;;;;;;;5.90;3.37;;;;;;;;;;5024117;28;20298;-56
2022/10/13 06:57:20;;;;;;;3.47;2.93;;;;;;;;;;5025240;28;20222;-56
2022/10/13 06:59:47;;;;;;;4.63;3.30;;;;;;;;;;5023893;28;20257;-56
2022/10/13 07:02:13;;;;;;;4.30;3.00;;;;;;;;;;5025196;28;20318;-54
2022/10/13 07:04:39;;;;;;;5.23;3.43;;;;;;;;;;5026652;28;20306;-52
2022/10/13 07:07:06;;;;;;;4.37;3.00;;;;;;;;;;5024570;28;20707;-55
2022/10/13 07:09:32;;;;;;;5.10;3.13;;;;;;;;;;5024313;28;20249;-54
2022/10/13 07:11:58;;;;;;;5.17;3.00;;;;;;;;;;5025673;28;20354;-52
2022/10/13 07:14:25;;;;;;;5.10;3.20;;;;;;;;;;5028689;28;20207;-53
2022/10/13 07:16:51;;;;;;;4.63;3.20;;;;;;;;;;5025871;28;20289;-51
2022/10/13 07:19:17;;;;;;;4.87;3.30;;;;;;;;;;5025665;28;20282;-53
2022/10/13 07:21:44;;;;;;;4.57;3.23;;;;;;;;;;5023274;28;20302;-54
2022/10/13 07:24:10;;;;;;;4.20;3.20;;;;;;;;;;5028000;28;20227;-54
2022/10/13 07:26:37;;;;;;;4.87;3.27;;;;;;;;;;5027877;28;20199;-54
2022/10/13 07:29:03;;;;;;;3.70;3.07;;;;;;;;;;5028844;28;20282;-50
2022/10/13 07:31:30;;;;;;;5.13;3.30;;;;;;;;;;5026118;28;20306;-56
2022/10/13 07:33:57;;;;;;;4.33;3.07;;;;;;;;;;5028355;28;20223;-52
2022/10/13 07:36:24;;;;;;;4.27;3.47;;;;;;;;;;5021985;28;20290;-50
2022/10/13 07:38:51;;;;;;;5.03;3.40;;;;;;;;;;5020206;28;21280;-56
2022/10/13 07:41:17;;;;;;;4.30;3.40;;;;;;;;;;5023461;28;20310;-54
2022/10/13 07:43:43;;;;;;;6.17;4.07;;;;;;;;;;5022873;28;20199;-52
2022/10/13 07:46:12;;;;;;;5.80;3.80;;;;;;;;;;5008426;28;20195;-50
2022/10/13 07:48:38;;;;;;;5.87;4.07;;;;;;;;;;5028945;28;20200;-52
2022/10/13 07:51:06;;;;;;;5.47;3.80;;;;;;;;;;5027617;28;20201;-50
2022/10/13 07:53:34;;;;;;;6.33;3.70;;;;;;;;;;5023484;28;20726;-50
2022/10/13 07:56:05;;;;;;;6.93;3.50;;;;;;;;;;5028059;28;20223;-53
2022/10/13 07:58:33;;;;;;;7.03;4.30;;;;;;;;;;5032125;28;20683;-54
2022/10/13 08:01:00;;;;;;;5.87;3.87;;;;;;;;;;5014025;28;20234;-54
2022/10/13 08:03:27;;;;;;;6.03;4.20;;;;;;;;;;5031162;28;20762;-52
2022/10/13 08:05:54;;;;;;;6.23;4.70;;;;;;;;;;5031867;28;20286;-54
2022/10/13 08:08:21;;;;;;;7.03;4.07;;;;;;;;;;5032752;28;20286;-54
2022/10/13 08:10:47;;;;;;;6.30;4.33;;;;;;;;;;5025305;28;20282;-54
2022/10/13 08:13:13;;;;;;;6.30;4.80;;;;;;;;;;5034686;28;20195;-51
2022/10/13 08:15:40;;;;;;;6.37;4.73;;;;;;;;;;5032296;28;20633;-54
2022/10/13 08:18:08;;;;;;;6.67;5.03;;;;;;;;;;5014986;28;20280;-55
2022/10/13 08:20:38;;;;;;;8.20;5.13;;;;;;;;;;5029604;28;20797;-55
2022/10/13 08:23:09;;;;;;;11.03;4.83;;;;;;;;;;5025615;28;20223;-56
2022/10/13 08:25:37;;;;;;;5.70;4.37;;;;;;;;;;5016982;28;20195;-55
2022/10/13 08:28:05;;;;;;;7.53;3.90;;;;;;;;;;5026542;28;20318;-55
2022/10/13 08:30:32;;;;;;;5.17;3.63;;;;;;;;;;5030378;28;20701;-54
2022/10/13 08:32:58;;;;;;;4.57;3.67;;;;;;;;;;5028964;28;20274;-53
2022/10/13 08:35:25;;;;;;;8.13;4.17;;;;;;;;;;5031404;28;20295;-58
2022/10/13 08:37:51;;;;;;;7.50;4.43;;;;;;;;;;5031028;28;20223;-54
2022/10/13 08:40:19;;;;;;;7.43;3.60;;;;;;;;;;5032487;28;20234;-54
2022/10/13 08:42:46;;;;;;;5.83;3.20;;;;;;;;;;5011364;28;20318;-57
2022/10/13 08:45:18;;;;;;;6.63;4.17;;;;;;;;;;4997168;28;20786;-57
2022/10/13 08:48:15;;;;;;;5.47;3.40;;;;;;;;;;5009206;28;20570;-56
2022/10/13 08:50:43;;;;;;;6.10;4.23;;;;;;;;;;5010951;28;20245;-57
2022/10/13 08:53:22;;;;;;;5.17;3.20;;;;;;;;;;4991204;28;20311;-56
2022/10/13 08:55:51;;;;;;;5.70;3.40;;;;;;;;;;5029128;28;20746;-59
2022/10/13 08:58:23;;;;;;;5.17;3.47;;;;;;;;;;5010075;28;20223;-56
2022/10/13 09:00:59;;;;;;;3.50;3.00;;;;;;;;;;5026877;28;20310;-56
2022/10/13 09:03:28;;;;;;;3.93;2.90;;;;;;;;;;5011964;28;20230;-54
2022/10/13 09:06:14;;;;;;;3.90;3.33;;;;;;;;;;5024285;28;20222;-56
2022/10/13 09:08:50;;;;;;;4.23;3.20;;;;;;;;;;5028795;28;20232;-55
2022/10/13 09:11:16;;;;;;;4.53;3.30;;;;;;;;;;5020038;28;20215;-55
2022/10/13 09:13:43;;;;;;;4.23;3.07;;;;;;;;;;5029706;28;20283;-55
2022/10/13 09:16:09;;;;;;;4.47;2.90;;;;;;;;;;5030509;28;20648;-54
2022/10/13 09:18:36;;;;;;;5.10;3.00;;;;;;;;;;5024347;28;20202;-52
2022/10/13 09:21:29;;;;;;;3.20;2.70;;;;;;;;;;5018860;28;20219;-51
2022/10/13 09:24:05;;;;;;;3.70;3.00;;;;;;;;;;5024559;28;20287;-52
2022/10/13 09:26:36;;;;;;;4.47;3.00;;;;;;;;;;5026195;28;20229;-54
2022/10/13 09:29:17;;;;;;;4.33;3.10;;;;;;;;;;5026247;28;20652;-55
2022/10/13 09:31:44;;;;;;;4.83;3.20;;;;;;;;;;5009493;28;21431;-55
2022/10/13 09:34:15;;;;;;;4.23;2.90;;;;;;;;;;5020772;28;20206;-56
2022/10/13 09:37:02;;;;;;;3.73;3.03;;;;;;;;;;5023158;28;20287;-57
2022/10/13 09:39:29;;;;;;;3.60;3.10;;;;;;;;;;5026412;28;20246;-54
2022/10/13 09:42:19;;;;;;;3.60;2.90;;;;;;;;;;5025834;28;20322;-54
2022/10/13 09:44:49;;;;;;;3.80;2.80;;;;;;;;;;5026892;28;20203;-55
2022/10/13 09:47:24;;;;;;;5.10;3.20;;;;;;;;;;4987446;28;20275;-57
2022/10/13 09:49:59;;;;;;;5.17;3.87;;;;;;;;;;4996244;28;20199;-55
2022/10/13 09:52:33;;;;;;;4.27;3.20;;;;;;;;;;5016586;28;20303;-58
2022/10/13 09:54:59;;;;;;;4.07;2.87;;;;;;;;;;5017014;28;20249;-58
2022/10/13 09:57:41;;;;;;;4.47;3.20;;;;;;;;;;5025219;28;20212;-54
2022/10/13 10:00:25;;;;;;;4.97;2.70;;;;;;;;;;5008740;28;20290;-54
2022/10/13 10:03:00;;;;;;;3.83;2.93;;;;;;;;;;5009418;28;20227;-51
2022/10/13 10:05:40;;;;;;;7.47;4.10;;;;;;;;;;5028882;28;20710;-57
2022/10/13 10:08:27;;;;;;;5.23;3.90;;;;;;;;;;5024461;28;20299;-57
2022/10/13 10:11:01;;;;;;;7.70;4.50;;;;;;;;;;5024196;28;20195;-57
2022/10/13 10:13:27;;;;;;;9.17;4.47;;;;;;;;;;5025581;28;20658;-57
2022/10/13 10:16:21;;;;;;;7.40;4.53;;;;;;;;;;5027630;28;20398;-56
2022/10/13 10:18:48;;;;;;;4.60;3.47;;;;;;;;;;5007492;28;20307;-55
2022/10/13 10:21:43;;;;;;;6.43;4.20;;;;;;;;;;5026039;28;20219;-56
2022/10/13 10:24:42;;;;;;;8.23;5.30;;;;;;;;;;5004470;28;20739;-53
2022/10/13 10:27:25;;;;;;;8.90;5.43;;;;;;;;;;5009632;28;20219;-54
2022/10/13 10:30:00;;;;;;;10.35;5.97;;;;;;;;;;5027495;28;20227;-54
2022/10/13 10:32:48;;;;;;;11.68;6.57;;;;;;;;;;5005677;28;20215;-54
2022/10/13 10:35:28;;;;;;;10.15;5.85;;;;;;;;;;5025608;28;20226;-54
2022/10/13 10:38:12;;;;;;;6.65;4.57;;;;;;;;;;5013397;28;20630;-57
2022/10/13 10:41:11;;;;;;;5.22;3.63;;;;;;;;;;5026327;28;20282;-56
2022/10/13 10:43:42;;;;;;;6.13;3.70;;;;;;;;;;5009595;28;20731;-57
2022/10/13 10:46:24;;;;;;;4.75;3.97;;;;;;;;;;5005920;28;20202;-57
2022/10/13 10:48:54;;;;;;;4.63;3.58;;;;;;;;;;5020560;28;20201;-56
2022/10/13 10:51:29;;;;;;;9.30;6.90;;;;;;;;;;5009559;28;20298;-57
2022/10/13 10:54:19;;;;;;;13.63;8.30;;;;;;;;;;5020941;28;20575;-57
2022/10/13 10:56:53;;;;;;;13.60;8.87;;;;;;;;;;5024919;28;20206;-54
2022/10/13 10:59:54;;;;;;;23.20;12.48;;;;;;;;;;5005315;28;20583;-52
2022/10/13 11:02:43;;;;;;;19.27;11.18;;;;;;;;;;5018295;28;20664;-53
2022/10/13 11:05:10;;;;;;;24.92;12.80;;;;;;;;;;5010167;28;20283;-55
2022/10/13 11:07:42;;;;;;;24.98;12.70;;;;;;;;;;5001864;28;20192;-54
2022/10/13 11:10:08;;;;;;;10.80;6.85;;;;;;;;;;5024089;28;20203;-55
2022/10/13 11:12:47;;;;;;;12.13;8.23;;;;;;;;;;5019782;28;20211;-55
2022/10/13 11:15:24;;;;;;;17.88;9.85;;;;;;;;;;5020741;28;20298;-54
2022/10/13 11:17:51;;;;;;;14.23;8.52;;;;;;;;;;5001601;28;20205;-52
2022/10/13 11:20:20;;;;;;;9.85;6.38;;;;;;;;;;5004702;28;20226;-54
2022/10/13 11:23:06;;;;;;;13.73;7.93;;;;;;;;;;5021362;28;20310;-55
2022/10/13 11:25:44;;;;;;;14.07;8.88;;;;;;;;;;5006274;28;20287;-55
2022/10/13 11:28:19;;;;;;;19.05;11.68;;;;;;;;;;5023333;28;20201;-55
2022/10/13 11:30:49;;;;;;;16.33;10.05;;;;;;;;;;5025114;28;20227;-54
2022/10/13 11:33:38;;;;;;;15.90;9.85;;;;;;;;;;5003335;28;20199;-54
2022/10/13 11:36:28;;;;;;;13.25;7.45;;;;;;;;;;5021885;28;20199;-57
2022/10/13 11:39:22;;;;;;;11.02;7.78;;;;;;;;;;5004569;28;20208;-54
2022/10/13 11:42:10;;;;;;;20.50;10.25;;;;;;;;;;5018375;28;20223;-59
2022/10/13 11:44:42;;;;;;;18.80;10.50;;;;;;;;;;5021303;28;20223;-59
2022/10/13 11:47:46;;;;;;;16.80;9.57;;;;;;;;;;5024638;28;20286;-56
2022/10/13 11:50:36;;;;;;;18.10;9.75;;;;;;;;;;5021341;28;20245;-56
2022/10/13 11:53:23;;;;;;;18.25;10.93;;;;;;;;;;5007354;28;20239;-56
2022/10/13 11:55:50;;;;;;;19.38;10.95;;;;;;;;;;5015444;28;20218;-55
2022/10/13 11:58:31;;;;;;;18.30;10.77;;;;;;;;;;5004999;28;20278;-56
2022/10/13 12:01:00;;;;;;;41.65;25.35;;;;;;;;;;5018992;28;20321;-57
2022/10/13 12:03:30;;;;;;;18.52;11.60;;;;;;;;;;5027922;28;20310;-57
2022/10/13 12:06:30;;;;;;;19.83;11.35;;;;;;;;;;5027450;28;20265;-57
2022/10/13 12:08:57;;;;;;;11.07;5.53;;;;;;;;;;5006439;28;20800;-58
2022/10/13 12:11:27;;;;;;;14.85;8.20;;;;;;;;;;5021723;28;20216;-57
2022/10/13 12:13:53;;;;;;;15.30;10.40;;;;;;;;;;5025888;28;20243;-59
2022/10/13 12:16:20;;;;;;;15.82;9.68;;;;;;;;;;5024579;28;20290;-58
2022/10/13 12:18:47;;;;;;;8.20;5.78;;;;;;;;;;5023586;28;20294;-58
2022/10/13 12:21:21;;;;;;;29.25;15.77;;;;;;;;;;5025384;28;20218;-58
2022/10/13 12:23:50;;;;;;;10.13;6.85;;;;;;;;;;5018811;28;20262;-55
2022/10/13 12:26:19;;;;;;;16.10;8.98;;;;;;;;;;5015362;28;20287;-53
2022/10/13 12:28:50;;;;;;;17.27;10.30;;;;;;;;;;5005113;28;20288;-53
2022/10/13 12:31:24;;;;;;;12.90;7.90;;;;;;;;;;5021544;28;20231;-53
2022/10/13 12:33:59;;;;;;;17.05;9.18;;;;;;;;;;5028059;28;20197;-50
2022/10/13 12:36:29;;;;;;;13.50;8.02;;;;;;;;;;5031957;28;20223;-53
2022/10/13 12:39:02;;;;;;;15.95;9.10;;;;;;;;;;5032629;28;20290;-52
2022/10/13 12:41:31;;;;;;;10.20;6.78;;;;;;;;;;5008056;28;20322;-55
2022/10/13 12:43:58;;;;;;;12.90;8.23;;;;;;;;;;5007790;28;20283;-53
2022/10/13 12:46:39;;;;;;;12.55;7.90;;;;;;;;;;5026784;28;20715;-57
2022/10/13 12:49:09;;;;;;;16.17;9.85;;;;;;;;;;5027754;28;20222;-59
2022/10/13 12:51:36;;;;;;;12.15;7.35;;;;;;;;;;5024562;28;20219;-56
2022/10/13 12:54:07;;;;;;;12.30;7.20;;;;;;;;;;5026765;28;20234;-59
2022/10/13 12:56:34;;;;;;;12.55;7.45;;;;;;;;;;5027929;28;20286;-54
2022/10/13 12:59:00;;;;;;;15.18;9.35;;;;;;;;;;5028092;28;20681;-54
2022/10/13 13:01:33;;;;;;;15.48;9.07;;;;;;;;;;5025131;28;20677;-52
2022/10/13 13:04:14;;;;;;;18.65;10.90;;;;;;;;;;5027129;28;20203;-56
2022/10/13 13:07:01;;;;;;;17.80;11.60;;;;;;;;;;5022850;28;20211;-55
2022/10/13 13:09:28;;;;;;;22.67;13.50;;;;;;;;;;5022987;28;20291;-53
2022/10/13 13:12:15;;;;;;;21.35;11.57;;;;;;;;;;5028445;28;20254;-53
2022/10/13 13:14:42;;;;;;;19.33;12.48;;;;;;;;;;5028045;28;20294;-57
2022/10/13 13:17:19;;;;;;;20.70;11.98;;;;;;;;;;5030031;28;20508;-56
2022/10/13 13:20:29;;;;;;;20.50;11.70;;;;;;;;;;5026414;28;20199;-55
2022/10/13 13:22:55;;;;;;;21.95;12.88;;;;;;;;;;5028371;28;20875;-57
2022/10/13 13:25:22;;;;;;;19.75;12.50;;;;;;;;;;5024622;28;20279;-59
2022/10/13 13:27:48;;;;;;;23.63;12.55;;;;;;;;;;5003012;28;20198;-57
2022/10/13 13:30:20;;;;;;;20.88;12.38;;;;;;;;;;5027362;28;20323;-53
2022/10/13 13:32:47;;;;;;;21.95;12.75;;;;;;;;;;5008729;28;20216;-57
2022/10/13 13:35:13;;;;;;;18.83;11.88;;;;;;;;;;5031447;28;20283;-55
2022/10/13 13:37:48;;;;;;;21.23;11.90;;;;;;;;;;5026194;28;20204;-59
2022/10/13 13:40:26;;;;;;;18.85;11.15;;;;;;;;;;5005555;28;20222;-57
2022/10/13 13:42:53;;;;;;;18.35;11.95;;;;;;;;;;5025247;28;20310;-56
2022/10/13 13:45:21;;;;;;;22.13;11.55;;;;;;;;;;5024178;28;20286;-58
2022/10/13 13:47:47;;;;;;;19.05;11.20;;;;;;;;;;5024504;28;20294;-59
2022/10/13 13:50:23;;;;;;;18.52;11.40;;;;;;;;;;5028818;28;20290;-55
2022/10/13 13:52:49;;;;;;;18.95;11.50;;;;;;;;;;5027283;28;20314;-55
2022/10/13 13:55:15;;;;;;;18.75;11.93;;;;;;;;;;4995127;28;20269;-53
2022/10/13 13:57:42;;;;;;;21.63;11.52;;;;;;;;;;5022180;28;20256;-52
2022/10/13 14:00:13;;;;;;;18.67;11.30;;;;;;;;;;5028673;28;20227;-56
2022/10/13 14:02:39;;;;;;;25.85;11.52;;;;;;;;;;5026688;28;20712;-56
2022/10/13 14:05:06;;;;;;;19.33;10.93;;;;;;;;;;5009931;28;20295;-56
2022/10/13 14:07:32;;;;;;;19.30;11.55;;;;;;;;;;5024509;28;20290;-55
2022/10/13 14:09:59;;;;;;;19.48;11.00;;;;;;;;;;5029064;28;20290;-56
2022/10/13 14:12:29;;;;;;;21.70;11.07;;;;;;;;;;5024064;28;20230;-57
2022/10/13 14:14:55;;;;;;;18.90;10.85;;;;;;;;;;5024537;28;20299;-56
2022/10/13 14:17:22;;;;;;;18.10;10.98;;;;;;;;;;5009663;28;20282;-55
2022/10/13 14:19:48;;;;;;;20.33;11.57;;;;;;;;;;5028710;28;20282;-57
2022/10/13 14:22:14;;;;;;;17.63;11.43;;;;;;;;;;5028728;28;20313;-54
2022/10/13 14:24:41;;;;;;;20.75;11.23;;;;;;;;;;5027963;28;20257;-54
2022/10/13 14:27:10;;;;;;;19.70;11.70;;;;;;;;;;5028122;28;21100;-59
2022/10/13 14:29:36;;;;;;;16.98;10.70;;;;;;;;;;5028473;28;20391;-54
2022/10/13 14:32:03;;;;;;;16.90;10.90;;;;;;;;;;5027125;28;20642;-56
2022/10/13 14:34:29;;;;;;;16.33;9.98;;;;;;;;;;5022777;28;20873;-57
2022/10/13 14:36:55;;;;;;;21.80;10.85;;;;;;;;;;5026878;28;20295;-56
2022/10/13 14:39:22;;;;;;;19.30;11.43;;;;;;;;;;5027761;28;20291;-57
2022/10/13 14:41:48;;;;;;;18.75;11.02;;;;;;;;;;5021998;28;20220;-58
2022/10/13 14:44:14;;;;;;;16.80;10.63;;;;;;;;;;5020438;28;20809;-57
2022/10/13 14:46:41;;;;;;;20.23;11.73;;;;;;;;;;5019427;28;20282;-56
2022/10/13 14:49:09;;;;;;;18.73;11.55;;;;;;;;;;5020849;28;20282;-56
2022/10/13 14:51:35;;;;;;;22.10;11.30;;;;;;;;;;5000436;28;20640;-54
2022/10/13 14:54:03;;;;;;;17.83;10.40;;;;;;;;;;5024873;28;20203;-58
2022/10/13 14:56:29;;;;;;;19.30;11.32;;;;;;;;;;5020986;28;20278;-56
2022/10/13 14:58:58;;;;;;;18.10;10.30;;;;;;;;;;5014925;28;20203;-56